Aldan, Pennsylvania
Current Conditions -  °F | °C
As of 12:54 PM on Friday 24 Oct 2014 (Local Time) from KPHL Reporting Station
Scattered Clouds Scattered Clouds  
Wind Chill: 66°   Ceiling: Unl
Heat Index: 66°   Visibility: 10mi
Dew Point: 43°   Wind: 20mph
Humidity: 43%   Direction: 320°NW
Pressure: 29.84"   Gusts: NA
Location:  39.9228°N, 75.2984°W
Report Text: KPHL 241654Z 32017KT 10SM FEW050 FEW120 SCT250 19/06 A2984 RMK AO2 SLP104 T01890061
Loading
Personal Weather Stations






























Interactive Weather Map
Tropical Storm Tracking
New forecast layout! Learn more

10-Day Weather Forecast

Advertisements
Track Severe Weather on mobile